This is the latest recevied weather packets stored in our database for station/object KY4EF. If no packets are shown the sender has not sent any weather packets the latest 10 day(s).
| Time | Temp. | Humidity | Pressure | Rain* | Wind** | Luminosity | Snow |
|---|---|---|---|---|---|---|---|
| 1777642839 | 13.33° C | 73% | 1012.8 hPa | 0 mm | - | 362 W/m² | - |
| 1777642537 | 14.44° C | 70% | 1012.9 hPa | 0 mm | - | 325 W/m² | - |
| 1777642232 | 13.89° C | 71% | 1013 hPa | 0 mm | - | 297 W/m² | - |
| 1777641930 | 13.33° C | 73% | 1012.9 hPa | 0 mm | - | 293 W/m² | - |
| 1777641625 | 12.78° C | 76% | 1013.1 hPa | 0 mm | - | 301 W/m² | - |
| 1777641320 | 12.78° C | 75% | 1013.2 hPa | 0 mm | - | 133 W/m² | - |
| 1777641016 | 12.22° C | 78% | 1013 hPa | 0 mm | - | 233 W/m² | - |
| 1777640713 | 10.56° C | 83% | 1013.1 hPa | 0 mm | - | 250 W/m² | - |
| 1777640409 | 11.11° C | 83% | 1012.8 hPa | 0 mm | - | 221 W/m² | - |
| 1777640106 | 10° C | 85% | 1012.9 hPa | 0 mm | - | 109 W/m² | - |
| 1777639802 | 8.89° C | 97% | 1012.9 hPa | 0 mm | - | 141 W/m² | - |
| 1777639500 | 7.78° C | 99% | 1012.8 hPa | 0 mm | - | 112 W/m² | - |
| 1777639197 | 7.78° C | 99% | 1012.9 hPa | 0 mm | - | 79 W/m² | - |
| 1777638893 | 7.22° C | 99% | 1012.9 hPa | 0 mm | - | 48 W/m² | - |
| 1777638588 | 7.22° C | 99% | 1012.8 hPa | 0 mm | - | 50 W/m² | - |
| 1777638285 | 6.67° C | 99% | 1012.9 hPa | 0 mm | - | 53 W/m² | - |
| 1777637981 | 6.67° C | 99% | 1012.8 hPa | 0 mm | - | 41 W/m² | - |
| 1777637678 | 6.67° C | 99% | 1012.7 hPa | 0 mm | - | 38 W/m² | - |
| 1777637375 | 6.11° C | 99% | 1012.8 hPa | 0 mm | - | 32 W/m² | - |
| 1777637071 | 6.11° C | 99% | 1012.6 hPa | 0 mm | - | 31 W/m² | - |
| 1777636767 | 6.11° C | 99% | 1012.6 hPa | 0 mm | - | 28 W/m² | - |
| 1777636464 | 6.11° C | 99% | 1012.5 hPa | 0 mm | - | 23 W/m² | - |
| 1777636160 | 6.11° C | 99% | 1012.6 hPa | 0 mm | - | 28 W/m² | - |
| 1777635855 | 6.11° C | 99% | 1012.6 hPa | 0 mm | - | 27 W/m² | - |
| 1777635552 | 6.11° C | 99% | 1012.9 hPa | 0 mm | - | 20 W/m² | - |
* Rain latest hour (hover to see other rain measurements)
** Current wind speed in m/s (hover to see current wind gust speed)